Time;durP1;ratioP1;P1;durP2;ratioP2;P2;SDS_P1;SDS_P2;PMS_P1;PMS_P2;Temp;Humidity;BMP_temperature;BMP_pressure;BME280_temperature;BME280_humidity;BME280_pressure;Samples;Min_cycle;Max_cycle;Signal;HPM_P1;HPM_P2
2022/04/18 00:01:14;;;;;;;8.77;5.20;;;;;;;2.17;83.99;102392.25;5053155;28;20265;-49
2022/04/18 00:03:39;;;;;;;8.65;5.80;;;;;;;2.15;84.11;102390.44;5054032;28;20603;-51
2022/04/18 00:06:05;;;;;;;8.98;5.78;;;;;;;2.30;84.26;102395.16;5054083;28;20524;-49
2022/04/18 00:08:30;;;;;;;8.68;5.60;;;;;;;2.42;83.88;102387.44;5035785;28;20231;-49
2022/04/18 00:10:55;;;;;;;10.95;5.85;;;;;;;2.36;83.23;102384.69;5053707;28;20254;-49
2022/04/18 00:13:21;;;;;;;8.65;5.57;;;;;;;2.24;83.18;102385.31;5054375;28;20237;-50
2022/04/18 00:15:46;;;;;;;10.13;6.18;;;;;;;2.21;83.33;102386.16;5054152;28;20198;-51
2022/04/18 00:18:12;;;;;;;8.43;5.70;;;;;;;2.13;83.45;102387.75;5053339;28;20659;-50
2022/04/18 00:20:38;;;;;;;8.05;5.78;;;;;;;2.11;83.62;102384.16;5053937;28;20179;-50
2022/04/18 00:23:03;;;;;;;8.13;5.82;;;;;;;1.97;83.72;102389.16;5053844;28;20183;-48
2022/04/18 00:25:28;;;;;;;10.02;6.25;;;;;;;2.05;83.96;102390.19;5053798;28;20263;-49
2022/04/18 00:27:54;;;;;;;9.48;6.05;;;;;;;2.13;83.95;102392.16;5053131;28;20199;-50
2022/04/18 00:30:19;;;;;;;8.73;6.03;;;;;;;2.08;83.53;102385.84;5052427;28;20168;-49
2022/04/18 00:32:45;;;;;;;9.35;5.85;;;;;;;2.21;83.23;102372.06;5053660;28;20282;-50
2022/04/18 00:35:11;;;;;;;9.40;5.45;;;;;;;2.14;83.32;102372.75;5051721;28;20262;-49
2022/04/18 00:37:40;;;;;;;7.47;5.90;;;;;;;2.11;83.31;102385.94;5053881;28;20285;-50
2022/04/18 00:40:07;;;;;;;8.50;6.13;;;;;;;1.98;83.13;102379.47;5052611;28;20708;-50
2022/04/18 00:42:35;;;;;;;8.32;6.43;;;;;;;1.94;83.89;102381.16;5053486;28;20182;-50
2022/04/18 00:45:01;;;;;;;9.10;5.90;;;;;;;1.88;84.16;102382.75;5051827;28;20211;-51
2022/04/18 00:47:27;;;;;;;8.32;5.70;;;;;;;1.78;84.26;102373.75;5053136;28;20635;-49
2022/04/18 00:49:52;;;;;;;7.85;5.70;;;;;;;1.62;84.95;102381.31;5052117;28;20187;-49
2022/04/18 00:52:18;;;;;;;8.15;5.85;;;;;;;1.54;85.31;102369.66;5053282;28;20175;-49
2022/04/18 00:54:44;;;;;;;9.68;6.47;;;;;;;1.38;86.32;102383.38;5053004;28;20266;-50
2022/04/18 00:57:10;;;;;;;8.55;5.97;;;;;;;1.49;86.64;102387.16;5053430;28;20195;-49
2022/04/18 00:59:37;;;;;;;13.52;6.35;;;;;;;1.37;86.86;102371.00;5052656;28;20633;-51
2022/04/18 01:02:04;;;;;;;8.88;5.60;;;;;;;1.49;86.96;102373.03;5053285;28;20183;-50
2022/04/18 01:04:30;;;;;;;7.57;5.53;;;;;;;1.49;87.02;102376.59;5050530;28;20689;-50
2022/04/18 01:06:57;;;;;;;8.95;5.47;;;;;;;1.62;86.70;102365.47;5052592;28;20202;-50
2022/04/18 01:09:23;;;;;;;8.80;5.30;;;;;;;1.77;86.23;102372.84;5052475;28;20183;-53
2022/04/18 01:11:49;;;;;;;8.00;5.47;;;;;;;1.69;86.27;102368.25;5051472;28;20179;-49
2022/04/18 01:14:27;;;;;;;8.13;5.03;;;;;;;1.58;86.05;102368.00;5051710;28;20199;-51
2022/04/18 01:17:02;;;;;;;7.35;5.47;;;;;;;1.70;85.90;102362.09;5052777;28;20174;-55
2022/04/18 01:19:34;;;;;;;6.72;5.30;;;;;;;1.63;85.30;102358.44;5052444;28;20175;-51
2022/04/18 01:22:19;;;;;;;10.02;5.60;;;;;;;1.65;85.56;102354.97;5052515;28;20269;-49
2022/04/18 01:30:34;;;;;;;6.88;4.90;;;;;;;1.50;85.36;102346.69;5021630;28;20559;-49
2022/04/18 01:33:00;;;;;;;7.10;4.75;;;;;;;1.46;84.94;102338.66;5025885;28;20200;-51
2022/04/18 01:35:26;;;;;;;6.15;4.55;;;;;;;1.50;85.09;102345.78;5030242;28;20203;-53
2022/04/18 01:37:51;;;;;;;6.45;4.78;;;;;;;1.37;84.83;102352.53;5032310;28;20231;-49
2022/04/18 01:40:17;;;;;;;9.23;5.43;;;;;;;1.38;85.11;102339.38;5030849;28;20180;-49
2022/04/18 01:42:43;;;;;;;7.53;5.20;;;;;;;1.20;85.21;102341.53;5030388;28;20179;-49
2022/04/18 01:45:11;;;;;;;7.00;5.07;;;;;;;1.09;85.62;102338.63;5030512;28;20180;-49
2022/04/18 01:47:38;;;;;;;7.15;5.03;;;;;;;0.99;86.33;102331.38;5030553;28;20192;-53
2022/04/18 01:50:04;;;;;;;7.93;5.30;;;;;;;0.96;86.41;102345.38;5030112;28;20251;-48
2022/04/18 01:52:30;;;;;;;6.65;4.85;;;;;;;0.93;86.86;102333.84;5030479;28;20179;-50
2022/04/18 01:54:56;;;;;;;6.13;4.47;;;;;;;1.09;87.05;102340.38;5030363;28;20179;-48
2022/04/18 01:57:22;;;;;;;12.70;4.95;;;;;;;1.10;86.50;102335.16;5030689;28;20200;-49
2022/04/18 01:59:48;;;;;;;7.80;4.78;;;;;;;1.07;85.82;102332.44;5029740;28;20210;-49
2022/04/18 02:02:13;;;;;;;5.82;4.38;;;;;;;1.05;86.14;102336.81;5030164;28;20176;-49
2022/04/18 02:04:39;;;;;;;6.03;4.35;;;;;;;0.84;86.49;102337.13;5031696;28;20615;-50
2022/04/18 02:07:10;;;;;;;5.65;4.15;;;;;;;0.77;86.75;102344.00;5029971;28;20187;-48
2022/04/18 02:09:38;;;;;;;7.47;4.20;;;;;;;0.76;87.29;102336.91;5029600;28;20241;-52
2022/04/18 02:12:06;;;;;;;5.07;4.30;;;;;;;0.63;88.05;102331.28;5030122;28;20207;-51
2022/04/18 02:14:39;;;;;;;6.70;4.63;;;;;;;0.55;89.00;102339.00;5030451;28;20245;-52
2022/04/18 02:17:04;;;;;;;5.60;3.97;;;;;;;0.57;88.66;102338.19;5030105;28;20191;-48
2022/04/18 02:19:30;;;;;;;6.55;4.03;;;;;;;0.67;89.32;102335.78;5031404;28;20168;-49
2022/04/18 02:21:56;;;;;;;4.38;3.72;;;;;;;0.79;89.39;102329.09;5031509;28;20254;-50
2022/04/18 02:24:21;;;;;;;5.63;4.13;;;;;;;0.91;88.43;102317.97;5030059;28;20172;-52
2022/04/18 02:26:47;;;;;;;6.22;4.35;;;;;;;1.00;88.33;102314.66;5030460;28;20184;-48
2022/04/18 02:29:13;;;;;;;5.90;4.07;;;;;;;0.84;88.06;102317.78;5029740;28;20253;-49
2022/04/18 02:34:24;;;;;;;6.55;4.15;;;;;;;0.75;88.42;102299.97;5029948;28;20281;-51
2022/04/18 02:36:51;;;;;;;8.48;4.93;;;;;;;0.76;88.18;102304.38;5030110;28;20178;-49
2022/04/18 02:39:17;;;;;;;7.15;4.90;;;;;;;0.75;88.32;102306.13;5029610;28;20365;-48
2022/04/18 02:41:42;;;;;;;8.13;5.15;;;;;;;0.66;87.89;102305.00;5031479;28;20200;-49
2022/04/18 02:44:08;;;;;;;7.22;4.82;;;;;;;0.49;88.52;102294.88;5029441;28;20196;-49
2022/04/18 02:46:33;;;;;;;7.32;4.68;;;;;;;0.49;89.27;102296.66;5031385;28;20253;-47
2022/04/18 02:49:02;;;;;;;5.78;4.38;;;;;;;0.34;88.92;102295.38;5029484;28;20265;-48
2022/04/18 02:51:28;;;;;;;6.63;4.53;;;;;;;0.33;89.22;102292.72;5029679;28;20664;-48
2022/04/18 02:53:59;;;;;;;6.32;4.70;;;;;;;0.18;89.85;102291.41;5029386;28;20726;-47
2022/04/18 02:56:25;;;;;;;6.88;4.47;;;;;;;0.21;89.89;102285.34;5030655;28;20697;-48
2022/04/18 02:58:51;;;;;;;6.53;4.28;;;;;;;0.43;90.59;102283.28;5028617;28;20207;-48
2022/04/18 03:01:17;;;;;;;6.03;3.90;;;;;;;0.48;90.11;102282.56;5029794;28;20179;-49
2022/04/18 03:03:43;;;;;;;6.63;4.38;;;;;;;0.50;89.70;102278.19;5029499;28;20171;-46
2022/04/18 03:06:10;;;;;;;5.60;4.10;;;;;;;0.60;89.15;102276.72;5029539;28;20404;-48
2022/04/18 03:08:36;;;;;;;6.72;4.30;;;;;;;0.70;88.78;102265.56;5029455;28;20241;-47
2022/04/18 03:11:03;;;;;;;6.07;4.40;;;;;;;0.61;88.68;102258.31;5029256;28;20184;-48
2022/04/18 03:13:32;;;;;;;6.68;4.10;;;;;;;0.52;88.70;102263.31;5012560;28;20624;-50
2022/04/18 03:15:59;;;;;;;6.65;4.00;;;;;;;0.39;88.68;102269.13;5029352;28;20172;-48
2022/04/18 03:18:28;;;;;;;6.38;4.10;;;;;;;0.29;89.00;102262.72;5030812;28;20225;-48
2022/04/18 03:20:54;;;;;;;5.43;3.85;;;;;;;0.27;88.23;102263.53;5029387;28;20160;-50
2022/04/18 03:23:20;;;;;;;5.95;3.97;;;;;;;0.27;89.15;102247.72;5029085;28;20176;-48
2022/04/18 03:26:09;;;;;;;4.88;3.50;;;;;;;0.40;88.87;102253.34;5029938;28;20187;-50
2022/04/18 03:28:51;;;;;;;7.28;4.10;;;;;;;0.20;89.00;102258.09;5028262;28;20192;-49
2022/04/18 03:31:17;;;;;;;5.90;3.42;;;;;;;0.16;89.03;102263.25;5026526;28;20176;-49
2022/04/18 03:33:42;;;;;;;5.70;4.30;;;;;;;0.16;89.32;102266.75;5028641;28;20198;-47
2022/04/18 03:41:41;;;;;;;4.30;3.42;;;;;;;0.23;89.70;102248.50;5025998;28;20180;-49
2022/04/18 03:44:07;;;;;;;5.72;4.00;;;;;;;0.30;89.73;102268.88;5020209;28;20655;-47
2022/04/18 03:46:32;;;;;;;7.80;4.20;;;;;;;0.34;89.36;102266.38;5030261;28;20198;-49
2022/04/18 03:48:57;;;;;;;6.40;4.05;;;;;;;0.31;89.48;102263.66;5029106;28;20203;-48
2022/04/18 03:51:23;;;;;;;6.72;3.90;;;;;;;0.28;89.06;102252.13;5028981;28;20513;-50
2022/04/18 03:53:49;;;;;;;6.10;3.53;;;;;;;0.38;89.46;102265.59;5028929;28;20188;-48
2022/04/18 03:56:16;;;;;;;5.35;3.70;;;;;;;0.43;89.41;102264.84;5028820;28;20168;-49
2022/04/18 03:59:00;;;;;;;8.07;3.88;;;;;;;0.29;89.16;102262.72;5028908;28;20207;-50
2022/04/18 04:01:27;;;;;;;7.28;4.10;;;;;;;0.24;89.15;102260.81;5029020;28;20172;-49
2022/04/18 04:03:53;;;;;;;7.43;4.68;;;;;;;0.16;89.31;102263.25;5028239;28;20218;-48
2022/04/18 04:06:19;;;;;;;5.68;4.20;;;;;;;0.11;89.68;102267.47;5027881;28;20657;-48
2022/04/18 04:08:44;;;;;;;5.65;3.95;;;;;;;0.14;89.44;102270.22;5027628;28;20191;-49
2022/04/18 04:11:11;;;;;;;5.95;3.95;;;;;;;0.12;90.26;102254.34;5027973;28;20187;-48
2022/04/18 04:13:39;;;;;;;7.40;4.53;;;;;;;-0.01;89.42;102255.75;5027633;28;20227;-49
2022/04/18 04:16:16;;;;;;;5.43;4.25;;;;;;;-0.08;90.24;102256.44;5027685;28;20567;-48
2022/04/18 04:18:42;;;;;;;5.88;4.22;;;;;;;-0.16;90.79;102247.41;5027638;28;20208;-50
2022/04/18 04:21:10;;;;;;;4.85;4.10;;;;;;;-0.13;90.66;102250.16;5027527;28;20210;-48
2022/04/18 04:23:36;;;;;;;5.68;4.03;;;;;;;-0.06;91.64;102251.22;5029008;28;20248;-51
2022/04/18 04:26:31;;;;;;;5.47;3.85;;;;;;;-0.15;90.80;102251.84;5022026;28;20191;-49
2022/04/18 04:28:58;;;;;;;6.85;4.20;;;;;;;-0.09;90.48;102249.38;5027049;28;20226;-49
2022/04/18 04:31:44;;;;;;;5.63;4.15;;;;;;;-0.11;90.93;102247.53;5020815;28;20226;-47
2022/04/18 04:34:13;;;;;;;6.13;4.38;;;;;;;-0.15;91.65;102243.03;5028779;28;20220;-48
2022/04/18 04:36:45;;;;;;;8.70;4.78;;;;;;;-0.11;91.12;102245.81;5027754;28;20224;-49
2022/04/18 04:39:14;;;;;;;5.20;3.97;;;;;;;0.11;91.06;102251.66;5028459;28;20691;-48
2022/04/18 04:41:42;;;;;;;6.32;4.55;;;;;;;0.20;90.75;102246.66;5030903;28;20175;-48
2022/04/18 04:44:08;;;;;;;8.68;5.80;;;;;;;0.34;90.59;102247.03;5014772;28;20195;-49
2022/04/18 04:46:45;;;;;;;7.90;4.65;;;;;;;0.48;89.83;102240.38;5011388;28;20188;-49
2022/04/18 04:49:13;;;;;;;6.10;4.72;;;;;;;0.87;89.72;102231.66;5010891;28;20722;-48
2022/04/18 04:51:47;;;;;;;7.32;4.80;;;;;;;1.43;88.96;102233.84;4985821;28;20521;-48
2022/04/18 04:54:14;;;;;;;6.15;4.05;;;;;;;2.10;88.20;102233.44;4946942;28;20205;-47
2022/04/18 04:56:42;;;;;;;6.07;4.75;;;;;;;2.75;86.49;102224.91;5012317;28;20613;-48
2022/04/18 04:59:08;;;;;;;7.72;4.70;;;;;;;3.32;84.25;102229.31;5010833;28;20196;-47
2022/04/18 05:01:34;;;;;;;5.35;4.55;;;;;;;3.54;81.11;102230.47;5011188;28;20554;-47
2022/04/18 05:04:04;;;;;;;7.28;5.03;;;;;;;3.89;78.85;102225.66;5011152;28;20169;-47
2022/04/18 05:06:32;;;;;;;6.97;4.80;;;;;;;4.06;77.46;102217.88;5011004;28;20176;-48
2022/04/18 05:08:59;;;;;;;6.38;4.50;;;;;;;4.37;76.36;102218.19;5010948;28;20192;-46
2022/04/18 05:11:26;;;;;;;7.10;4.75;;;;;;;4.63;75.33;102215.75;5011143;28;20177;-48
2022/04/18 05:13:52;;;;;;;5.68;4.15;;;;;;;4.97;74.68;102201.88;5013044;28;20286;-45
2022/04/18 05:16:25;;;;;;;6.13;4.85;;;;;;;5.08;73.12;102208.16;5011398;28;20238;-47
2022/04/18 05:18:55;;;;;;;6.68;4.80;;;;;;;5.45;72.42;102200.41;5011454;28;20205;-46
2022/04/18 05:21:20;;;;;;;6.55;4.55;;;;;;;5.74;71.23;102201.41;5012575;28;20183;-45
2022/04/18 05:23:49;;;;;;;6.45;5.03;;;;;;;6.05;70.75;102192.66;5010978;28;20207;-45
2022/04/18 05:26:15;;;;;;;5.45;4.13;;;;;;;6.18;69.99;102206.00;5010737;28;20180;-44
2022/04/18 05:28:42;;;;;;;6.75;4.50;;;;;;;6.51;68.94;102209.59;5009952;28;20196;-44
2022/04/18 05:31:08;;;;;;;6.38;5.03;;;;;;;6.70;68.41;102198.97;5010926;28;20177;-44
2022/04/18 05:33:37;;;;;;;7.75;4.13;;;;;;;7.01;67.61;102198.03;5010935;28;20339;-45
2022/04/18 05:36:22;;;;;;;6.30;4.35;;;;;;;7.09;66.79;102192.72;5011007;28;20161;-46
2022/04/18 05:38:48;;;;;;;5.97;4.50;;;;;;;7.42;66.46;102193.50;5010985;28;20822;-48
2022/04/18 05:41:19;;;;;;;6.28;4.55;;;;;;;7.52;66.27;102202.34;5305337;22;20219;-54
2022/04/18 05:43:49;;;;;;;6.55;5.00;;;;;;;7.91;65.50;102189.75;5014311;28;20310;-50
2022/04/18 05:46:16;;;;;;;4.95;4.45;;;;;;;8.15;64.76;102202.06;5027198;28;20258;-53
2022/04/18 05:48:41;;;;;;;5.78;4.60;;;;;;;8.39;63.96;102182.31;5031642;28;20227;-52
2022/04/18 05:51:07;;;;;;;6.65;5.03;;;;;;;8.61;63.63;102183.94;5029652;28;20168;-52
2022/04/18 05:53:33;;;;;;;5.13;4.40;;;;;;;8.77;62.75;102178.50;5030310;28;20192;-50
2022/04/18 05:56:17;;;;;;;9.00;5.20;;;;;;;8.53;62.91;102184.94;5031992;28;20376;-52
2022/04/18 05:58:53;;;;;;;6.82;4.90;;;;;;;8.78;62.79;102185.59;5031554;28;20219;-53
2022/04/18 06:01:50;;;;;;;6.97;5.05;;;;;;;9.22;62.11;102178.91;5031670;28;20178;-50
2022/04/18 06:04:27;;;;;;;7.15;5.00;;;;;;;9.67;61.10;102185.53;5030377;28;20207;-50
2022/04/18 06:07:13;;;;;;;7.65;5.85;;;;;;;9.55;60.57;102180.31;5031173;28;20191;-52
2022/04/18 06:09:39;;;;;;;7.43;5.53;;;;;;;9.90;60.19;102182.56;5030107;28;20222;-52
2022/04/18 06:12:05;;;;;;;8.45;5.70;;;;;;;9.46;60.24;102183.09;5031784;28;20164;-50
2022/04/18 06:14:35;;;;;;;8.02;5.93;;;;;;;9.48;61.32;102190.19;5029692;28;20198;-52
2022/04/18 06:17:01;;;;;;;10.25;5.80;;;;;;;9.88;61.74;102191.50;5029878;28;20180;-51
2022/04/18 06:19:27;;;;;;;7.90;5.97;;;;;;;9.88;60.87;102189.72;5029669;28;20167;-52
2022/04/18 06:21:52;;;;;;;6.95;5.93;;;;;;;10.43;61.67;102188.06;5030177;28;20650;-51
2022/04/18 06:24:19;;;;;;;8.40;6.43;;;;;;;10.22;60.67;102191.91;5029978;28;20175;-49
2022/04/18 06:26:56;;;;;;;10.35;6.13;;;;;;;10.95;60.04;102185.41;5031507;28;20192;-50
2022/04/18 06:29:22;;;;;;;8.07;6.25;;;;;;;11.12;58.80;102177.91;5029541;28;20184;-51
2022/04/18 06:31:53;;;;;;;9.48;6.00;;;;;;;11.27;57.46;102193.72;5030202;28;20225;-52
2022/04/18 06:34:20;;;;;;;8.25;6.13;;;;;;;11.00;57.57;102186.19;5029617;28;20204;-49
2022/04/18 06:36:47;;;;;;;7.50;6.38;;;;;;;10.93;57.42;102182.72;5030226;28;20176;-52
2022/04/18 06:39:36;;;;;;;10.07;6.07;;;;;;;11.20;57.84;102183.16;5029190;28;20512;-51
2022/04/18 06:42:09;;;;;;;7.78;6.10;;;;;;;10.81;57.71;102189.22;5029891;28;20195;-48
2022/04/18 06:44:55;;;;;;;9.50;6.53;;;;;;;10.98;57.82;102178.19;5030426;28;20650;-49
2022/04/18 06:47:21;;;;;;;8.57;6.03;;;;;;;10.31;59.38;102189.13;5029378;28;20290;-52
2022/04/18 06:50:00;;;;;;;7.93;6.45;;;;;;;11.12;58.88;102194.00;5030522;28;20175;-52
2022/04/18 06:52:50;;;;;;;8.63;6.32;;;;;;;11.17;58.89;102183.19;5031416;28;20230;-52
2022/04/18 06:58:33;;;;;;;9.27;6.45;;;;;;;11.34;56.83;102178.38;5029239;28;20207;-54
2022/04/18 07:01:00;;;;;;;8.60;6.88;;;;;;;11.25;57.04;102179.44;5029025;28;20199;-52
2022/04/18 07:03:26;;;;;;;8.30;6.28;;;;;;;10.88;59.27;102187.31;5028317;28;20225;-52
2022/04/18 07:05:53;;;;;;;8.45;6.53;;;;;;;11.34;57.23;102189.13;5029208;28;20215;-52
2022/04/18 07:08:18;;;;;;;10.35;5.82;;;;;;;11.34;57.23;102191.81;5029638;28;20230;-54
2022/04/18 07:10:44;;;;;;;10.60;6.40;;;;;;;11.72;57.04;102174.94;5028770;28;20218;-52
2022/04/18 07:13:10;;;;;;;8.07;6.03;;;;;;;11.64;57.59;102187.63;5012628;28;20207;-50
2022/04/18 07:15:37;;;;;;;7.85;6.25;;;;;;;11.94;55.88;102177.19;5029434;28;20270;-52
2022/04/18 07:18:04;;;;;;;10.00;6.13;;;;;;;11.91;55.81;102185.28;5028759;28;20623;-50
2022/04/18 07:20:30;;;;;;;7.32;6.05;;;;;;;12.23;55.58;102189.06;5028904;28;20259;-51
2022/04/18 07:22:56;;;;;;;8.02;6.35;;;;;;;12.51;55.07;102183.91;5030335;28;20243;-50
2022/04/18 07:25:25;;;;;;;10.32;6.28;;;;;;;13.18;53.72;102183.94;5029216;28;20195;-53
2022/04/18 07:28:10;;;;;;;10.55;6.35;;;;;;;12.92;53.77;102179.25;5028836;28;20196;-50
2022/04/18 07:30:36;;;;;;;12.35;6.85;;;;;;;12.61;54.29;102179.19;5028684;28;20270;-51
2022/04/18 07:33:02;;;;;;;8.25;6.18;;;;;;;12.96;54.21;102180.94;5028813;28;20283;-51
2022/04/18 07:35:27;;;;;;;8.50;6.07;;;;;;;13.25;54.41;102173.88;5028910;28;20615;-51
2022/04/18 07:40:46;;;;;;;8.45;6.47;;;;;;;12.42;54.06;102182.34;5028664;28;20203;-53
2022/04/18 07:43:15;;;;;;;9.50;6.05;;;;;;;12.75;53.85;102171.66;5028957;28;20172;-50
2022/04/18 07:45:41;;;;;;;9.63;6.57;;;;;;;12.60;53.15;102166.69;5028702;28;20179;-50
2022/04/18 07:48:08;;;;;;;9.98;6.45;;;;;;;13.08;52.35;102166.31;5028700;28;20192;-50
2022/04/18 07:53:22;;;;;;;8.55;6.07;;;;;;;14.09;50.82;102174.13;5028914;28;20291;-54
2022/04/18 07:55:52;;;;;;;8.50;6.60;;;;;;;13.90;49.23;102165.72;5028687;28;20213;-52
2022/04/18 07:58:18;;;;;;;9.80;6.82;;;;;;;14.08;47.69;102166.09;5028709;28;20644;-50
2022/04/18 08:00:45;;;;;;;7.53;6.05;;;;;;;14.11;50.30;102160.63;5028159;28;20528;-53
2022/04/18 08:03:11;;;;;;;9.48;6.85;;;;;;;14.35;49.84;102156.25;5028990;28;20634;-50
2022/04/18 08:05:59;;;;;;;8.77;6.38;;;;;;;14.09;49.42;102155.25;5028657;28;20254;-52
2022/04/18 08:08:47;;;;;;;8.93;6.72;;;;;;;14.36;48.58;102155.31;5028317;28;20203;-53
2022/04/18 08:11:15;;;;;;;8.65;6.65;;;;;;;14.29;48.34;102151.94;5028246;28;20553;-51
2022/04/18 08:13:47;;;;;;;8.40;6.00;;;;;;;14.66;47.25;102144.47;5029222;28;20324;-51
2022/04/18 08:16:31;;;;;;;8.98;5.72;;;;;;;14.30;47.57;102161.78;5033971;28;20191;-52
2022/04/18 08:19:03;;;;;;;8.95;6.13;;;;;;;13.90;47.21;102149.56;5032308;28;20188;-50
2022/04/18 08:21:28;;;;;;;9.43;6.70;;;;;;;13.56;46.93;102155.97;5031889;28;20198;-48
2022/04/18 08:23:54;;;;;;;8.20;6.65;;;;;;;14.47;46.29;102142.34;5032323;28;20172;-52
2022/04/18 08:26:38;;;;;;;11.23;6.60;;;;;;;14.16;45.94;102142.47;5033649;28;20586;-50
2022/04/18 08:29:11;;;;;;;9.18;5.93;;;;;;;13.62;45.08;102145.94;5016524;28;20202;-49
2022/04/18 08:31:56;;;;;;;10.45;7.07;;;;;;;13.01;46.07;102143.16;5031882;28;20688;-48
2022/04/18 08:34:28;;;;;;;8.27;5.68;;;;;;;13.83;45.23;102156.06;5032086;28;20500;-51
2022/04/18 08:36:57;;;;;;;8.30;6.38;;;;;;;14.32;43.83;102145.53;5033304;28;20242;-49
2022/04/18 08:39:27;;;;;;;8.98;6.60;;;;;;;14.52;42.58;102139.47;5032025;28;20200;-50
2022/04/18 08:42:02;;;;;;;10.43;5.90;;;;;;;15.08;42.61;102133.09;5031503;28;20287;-50
2022/04/18 08:44:37;;;;;;;8.50;5.90;;;;;;;13.97;43.58;102151.16;5032034;28;20207;-50
2022/04/18 08:47:03;;;;;;;11.18;6.28;;;;;;;13.71;44.82;102151.97;5031949;28;20190;-46
2022/04/18 08:55:23;;;;;;;9.02;6.45;;;;;;;15.08;43.24;102139.34;5033268;28;20195;-47
2022/04/18 08:57:50;;;;;;;9.57;6.20;;;;;;;14.67;42.79;102122.84;5032976;28;20199;-47
2022/04/18 09:00:16;;;;;;;10.57;5.90;;;;;;;14.42;43.50;102137.09;5031702;28;20195;-46
2022/04/18 09:02:48;;;;;;;10.65;6.57;;;;;;;15.06;44.67;102133.13;5032060;28;20164;-47
2022/04/18 09:05:23;;;;;;;8.82;6.38;;;;;;;15.29;43.38;102121.50;5031096;28;20160;-45
2022/04/18 09:08:00;;;;;;;8.93;6.93;;;;;;;14.64;43.22;102136.41;5031836;28;20334;-48
2022/04/18 09:10:30;;;;;;;8.38;5.90;;;;;;;14.26;42.15;102133.16;5031291;28;20191;-47
2022/04/18 09:13:11;;;;;;;9.73;6.20;;;;;;;14.43;42.45;102125.41;5031717;28;20198;-48
2022/04/18 09:15:50;;;;;;;8.85;6.25;;;;;;;14.21;44.07;102138.72;5032607;28;20219;-49
2022/04/18 09:18:18;;;;;;;10.38;6.75;;;;;;;14.60;42.64;102124.84;5031590;28;20711;-49
2022/04/18 09:21:09;;;;;;;9.75;6.63;;;;;;;14.16;42.05;102134.38;5030328;28;20237;-50
2022/04/18 09:23:39;;;;;;;10.15;6.20;;;;;;;14.38;41.99;102118.38;5031671;28;20176;-48
2022/04/18 09:26:16;;;;;;;8.27;6.18;;;;;;;14.63;41.38;102119.34;5015308;28;20710;-50
2022/04/18 09:28:42;;;;;;;10.18;6.45;;;;;;;15.08;39.91;102112.38;5031284;28;20206;-50
2022/04/18 09:31:10;;;;;;;7.57;5.50;;;;;;;14.77;39.20;102124.25;5030827;28;20180;-50
2022/04/18 09:33:54;;;;;;;6.63;5.40;;;;;;;15.40;39.72;102108.47;5031237;28;20211;-49
2022/04/18 09:36:22;;;;;;;8.90;6.57;;;;;;;15.09;41.74;102106.06;5031256;28;20184;-49
2022/04/18 09:38:50;;;;;;;7.40;6.03;;;;;;;15.84;41.34;102105.00;5030423;28;20211;-49
2022/04/18 09:42:07;;;;;;;9.98;6.45;;;;;;;14.83;40.24;102104.28;5022433;28;20199;-50
2022/04/18 09:44:56;;;;;;;11.30;6.75;;;;;;;15.16;39.81;102094.06;5029054;28;20246;-48
2022/04/18 09:47:26;;;;;;;8.10;6.38;;;;;;;15.42;39.63;102093.09;5030834;28;20184;-47
2022/04/18 09:49:52;;;;;;;10.20;6.40;;;;;;;15.73;40.81;102100.03;5030942;28;20199;-48
2022/04/18 09:52:26;;;;;;;11.65;7.10;;;;;;;16.02;38.75;102096.16;5030650;28;20208;-49
2022/04/18 09:54:55;;;;;;;8.85;6.60;;;;;;;16.00;39.85;102089.94;5030921;28;20242;-47
2022/04/18 09:57:22;;;;;;;8.70;6.53;;;;;;;16.39;40.21;102089.22;5031733;28;20621;-50
2022/04/18 09:59:50;;;;;;;8.77;6.47;;;;;;;16.47;39.66;102094.31;5031492;28;20164;-49
2022/04/18 10:02:17;;;;;;;9.38;6.60;;;;;;;16.47;38.58;102087.06;5031953;28;20184;-47
2022/04/18 10:04:43;;;;;;;9.88;6.60;;;;;;;15.80;40.69;102074.53;5032187;28;20165;-46
2022/04/18 10:07:10;;;;;;;7.70;6.00;;;;;;;15.49;40.27;102084.75;5030350;28;20176;-48
2022/04/18 10:09:39;;;;;;;8.90;6.13;;;;;;;15.57;39.85;102077.25;5031711;28;20187;-47
2022/04/18 10:12:05;;;;;;;11.50;7.45;;;;;;;14.19;41.08;102083.97;5031716;28;20257;-47
2022/04/18 10:14:31;;;;;;;11.02;7.30;;;;;;;14.69;41.73;102079.59;5031368;28;20184;-47
2022/04/18 10:16:58;;;;;;;10.68;7.07;;;;;;;15.38;41.61;102077.06;5032026;28;20186;-47
2022/04/18 10:19:57;;;;;;;11.23;6.80;;;;;;;15.84;40.69;102062.66;5031261;28;20235;-50
2022/04/18 10:22:28;;;;;;;10.98;7.30;;;;;;;15.24;41.73;102067.69;5031567;28;20194;-48
2022/04/18 10:25:20;;;;;;;9.38;6.55;;;;;;;15.71;43.09;102072.19;5031288;28;20180;-48
2022/04/18 10:28:14;;;;;;;9.52;7.03;;;;;;;15.86;40.93;102060.75;5031335;28;20207;-49
2022/04/18 10:30:46;;;;;;;9.95;6.85;;;;;;;16.10;41.23;102063.41;5029574;28;20287;-47
2022/04/18 10:33:12;;;;;;;10.57;7.15;;;;;;;15.75;41.12;102071.13;5031521;28;20200;-47
2022/04/18 10:35:52;;;;;;;10.45;6.82;;;;;;;16.17;40.87;102055.91;5031098;28;20177;-47
2022/04/18 10:38:22;;;;;;;12.13;7.50;;;;;;;15.10;42.39;102055.63;5031362;28;20202;-47
2022/04/18 10:40:48;;;;;;;11.43;8.07;;;;;;;15.45;41.79;102059.69;5030795;28;20291;-48
2022/04/18 10:43:14;;;;;;;11.75;7.95;;;;;;;15.55;40.78;102058.38;5030910;28;20160;-48
2022/04/18 10:45:40;;;;;;;11.93;7.63;;;;;;;15.97;40.99;102064.88;5030989;28;20183;-49
2022/04/18 10:48:08;;;;;;;9.88;6.65;;;;;;;16.05;42.45;102057.31;5031194;28;20196;-47
2022/04/18 10:50:40;;;;;;;10.35;7.05;;;;;;;16.37;40.97;102057.78;5030383;28;20597;-50
2022/04/18 10:53:24;;;;;;;11.00;7.95;;;;;;;16.12;40.32;102063.34;5031475;28;20192;-47
2022/04/18 10:55:53;;;;;;;10.63;6.97;;;;;;;15.78;41.37;102051.22;5029070;28;20184;-49
2022/04/18 10:58:23;;;;;;;9.50;6.78;;;;;;;15.68;42.10;102052.47;5029885;28;20579;-47
2022/04/18 11:00:54;;;;;;;9.82;6.32;;;;;;;16.54;42.34;102046.22;5030424;28;20193;-48
2022/04/18 11:03:37;;;;;;;9.95;6.88;;;;;;;16.17;39.91;102039.69;5030887;28;20168;-48
2022/04/18 11:06:11;;;;;;;9.32;6.78;;;;;;;16.10;39.13;102030.97;5029615;28;20218;-48
2022/04/18 11:08:38;;;;;;;10.50;6.05;;;;;;;16.71;39.99;102035.53;5030697;28;20338;-50
2022/04/18 11:11:07;;;;;;;10.18;6.57;;;;;;;15.24;40.78;102031.72;5030226;28;20582;-49
2022/04/18 11:13:33;;;;;;;8.90;6.32;;;;;;;15.92;40.29;102031.72;5030778;28;20199;-50
2022/04/18 11:16:23;;;;;;;9.02;6.32;;;;;;;15.92;40.57;102040.72;5030833;28;20203;-49
2022/04/18 11:19:08;;;;;;;10.02;6.30;;;;;;;15.68;40.47;102047.06;5030098;28;20212;-47
2022/04/18 11:21:54;;;;;;;10.70;7.18;;;;;;;15.49;40.89;102037.00;5029092;28;20167;-48
2022/04/18 11:24:39;;;;;;;10.15;6.53;;;;;;;15.59;40.72;102034.81;5030684;28;20184;-48
2022/04/18 11:27:15;;;;;;;9.18;6.45;;;;;;;15.39;41.58;102031.13;5030071;28;20603;-49
2022/04/18 11:29:44;;;;;;;9.75;6.50;;;;;;;15.86;41.42;102022.06;5030172;28;20159;-48
2022/04/18 11:32:16;;;;;;;12.45;6.45;;;;;;;16.31;40.50;102025.56;5030550;28;20510;-47
2022/04/18 11:34:44;;;;;;;11.15;7.40;;;;;;;15.70;40.33;102028.97;5030069;28;20233;-47
2022/04/18 11:37:10;;;;;;;10.07;6.18;;;;;;;15.73;40.27;102026.22;5030987;28;20199;-47
2022/04/18 11:39:44;;;;;;;13.95;7.93;;;;;;;15.48;43.57;102024.47;5029716;28;20541;-47
2022/04/18 11:42:15;;;;;;;13.45;8.50;;;;;;;15.76;44.33;102028.78;5029002;28;20266;-48
2022/04/18 11:44:41;;;;;;;12.70;8.32;;;;;;;15.69;45.40;102021.84;5029029;28;20673;-47
2022/04/18 11:47:28;;;;;;;13.50;8.07;;;;;;;14.52;47.40;102027.13;5030333;28;20252;-46
2022/04/18 11:49:59;;;;;;;12.00;7.55;;;;;;;14.93;47.10;102016.66;5028776;28;20270;-47
2022/04/18 11:52:27;;;;;;;14.38;8.02;;;;;;;15.17;46.05;102022.06;5030489;28;20164;-46
2022/04/18 11:54:58;;;;;;;15.27;8.90;;;;;;;14.62;48.11;102022.31;5030220;28;20245;-48
2022/04/18 11:57:24;;;;;;;14.30;9.25;;;;;;;14.06;48.01;102012.53;5030222;28;20208;-49
2022/04/18 11:59:50;;;;;;;14.68;8.75;;;;;;;14.69;48.13;102012.16;5029668;28;20659;-49
2022/04/18 12:07:46;;;;;;;14.07;8.77;;;;;;;14.88;48.15;101999.75;5030604;28;20241;-49
2022/04/18 12:10:24;;;;;;;13.48;8.70;;;;;;;15.05;47.81;101999.13;5029708;28;20210;-49
2022/04/18 12:12:50;;;;;;;16.55;9.82;;;;;;;14.89;47.80;102014.13;5029824;28;20182;-48
2022/04/18 12:15:16;;;;;;;13.45;9.30;;;;;;;15.02;48.46;101997.44;5029858;28;20176;-46